Time;durP1;ratioP1;P1;durP2;ratioP2;P2;SDS_P1;SDS_P2;PMS_P1;PMS_P2;Temp;Humidity;BMP_temperature;BMP_pressure;BME280_temperature;BME280_humidity;BME280_pressure;Samples;Min_cycle;Max_cycle;Signal;HPM_P1;HPM_P2
2021/03/17 00:00:46;;;;;;;48.95;32.93;;;;;;;1.65;82.15;96249.47;1754214;79;21070;-82
2021/03/17 00:03:14;;;;;;;45.38;31.25;;;;;;;1.67;82.09;96255.27;1759825;79;21761;-82
2021/03/17 00:05:41;;;;;;;54.13;34.92;;;;;;;1.64;82.03;96251.22;1758097;79;21852;-82
2021/03/17 00:08:07;;;;;;;55.35;35.92;;;;;;;1.64;82.04;96247.86;1762419;79;21664;-82
2021/03/17 00:10:39;;;;;;;57.30;34.25;;;;;;;1.64;82.05;96245.30;1765517;81;21216;-82
2021/03/17 00:13:05;;;;;;;49.50;32.98;;;;;;;1.65;82.06;96242.60;1758912;79;21078;-81
2021/03/17 00:15:35;;;;;;;48.80;33.15;;;;;;;1.69;82.00;96239.30;1764547;79;21105;-81
2021/03/17 00:18:01;;;;;;;48.05;32.40;;;;;;;1.74;81.79;96237.95;1747354;81;21117;-81
2021/03/17 00:20:28;;;;;;;39.98;28.90;;;;;;;1.78;81.71;96239.31;1773457;81;21224;-81
2021/03/17 00:22:55;;;;;;;47.30;30.10;;;;;;;1.77;81.70;96238.97;1779755;81;21261;-81
2021/03/17 00:25:22;;;;;;;50.88;30.95;;;;;;;1.77;81.76;96235.60;1758296;79;21122;-81
2021/03/17 00:27:48;;;;;;;44.83;30.77;;;;;;;1.76;81.70;96230.95;1775435;79;21090;-81
2021/03/17 00:30:15;;;;;;;42.88;28.73;;;;;;;1.79;81.70;96228.63;1780129;79;21071;-82
2021/03/17 00:32:41;;;;;;;38.55;28.45;;;;;;;1.79;81.47;96230.71;1781148;79;21296;-82
2021/03/17 00:35:08;;;;;;;42.95;29.02;;;;;;;1.80;81.34;96232.33;1779000;79;21086;-82
2021/03/17 00:37:34;;;;;;;42.98;29.02;;;;;;;1.78;81.38;96234.19;1758453;81;21101;-82
2021/03/17 00:40:00;;;;;;;46.02;31.80;;;;;;;1.78;81.50;96234.19;1771108;79;21119;-82
2021/03/17 00:42:26;;;;;;;47.83;31.48;;;;;;;1.76;81.62;96236.08;1770004;80;21086;-81
2021/03/17 00:44:53;;;;;;;38.58;26.30;;;;;;;1.72;81.85;96232.16;1768792;79;21227;-82
2021/03/17 00:47:19;;;;;;;43.05;29.02;;;;;;;1.70;81.87;96217.39;1769703;79;21415;-82
2021/03/17 00:49:45;;;;;;;38.17;28.10;;;;;;;1.70;81.71;96222.52;1767826;80;21093;-81
2021/03/17 00:52:10;;;;;;;38.33;27.27;;;;;;;1.73;81.65;96229.94;1772033;80;21050;-82
2021/03/17 00:54:36;;;;;;;39.58;27.02;;;;;;;1.70;81.82;96232.77;1766675;79;21082;-82
2021/03/17 00:57:03;;;;;;;41.90;29.05;;;;;;;1.66;81.82;96233.16;1757381;80;21102;-82
2021/03/17 00:59:30;;;;;;;46.00;29.82;;;;;;;1.57;81.85;96224.49;1784185;79;21087;-82
2021/03/17 01:01:59;;;;;;;45.15;30.57;;;;;;;1.62;81.89;96226.19;1773308;80;21105;-82
2021/03/17 01:04:25;;;;;;;42.08;28.60;;;;;;;1.63;81.82;96225.28;1774202;79;21256;-82
2021/03/17 01:06:51;;;;;;;42.65;29.10;;;;;;;1.63;81.89;96232.95;1769972;79;21196;-82
2021/03/17 01:09:17;;;;;;;44.63;31.65;;;;;;;1.59;81.93;96225.17;1766229;80;21228;-82
2021/03/17 01:11:43;;;;;;;48.48;31.75;;;;;;;1.58;82.06;96222.75;1767022;80;21074;-82
2021/03/17 01:14:11;;;;;;;49.55;34.23;;;;;;;1.61;82.10;96226.32;1769275;79;21093;-82
2021/03/17 01:16:38;;;;;;;43.68;29.23;;;;;;;1.57;82.05;96227.53;1782948;79;21431;-82
2021/03/17 01:19:04;;;;;;;44.73;30.15;;;;;;;1.56;82.35;96228.47;1770989;79;21098;-82
2021/03/17 01:21:30;;;;;;;43.75;29.67;;;;;;;1.55;82.70;96230.22;1742615;80;21137;-82
2021/03/17 01:23:56;;;;;;;44.38;29.82;;;;;;;1.56;82.47;96222.88;1772109;80;21051;-82
2021/03/17 01:26:22;;;;;;;43.78;30.17;;;;;;;1.61;82.50;96220.72;1775252;80;21097;-82
2021/03/17 01:28:48;;;;;;;43.02;29.30;;;;;;;1.66;82.55;96225.01;1768746;80;21325;-81
2021/03/17 01:31:14;;;;;;;47.20;31.42;;;;;;;1.64;82.44;96225.61;1771928;80;21352;-81
2021/03/17 01:33:39;;;;;;;45.00;30.97;;;;;;;1.60;82.48;96228.07;1770607;79;21091;-81
2021/03/17 01:36:06;;;;;;;42.48;28.32;;;;;;;1.58;82.50;96225.30;1769173;79;21086;-82
2021/03/17 01:38:32;;;;;;;44.95;30.68;;;;;;;1.60;82.44;96220.86;1768047;80;21096;-81
2021/03/17 01:40:58;;;;;;;45.10;31.35;;;;;;;1.58;82.54;96220.99;1760974;79;22048;-81
2021/03/17 01:43:24;;;;;;;40.95;29.02;;;;;;;1.62;82.67;96227.94;1763970;81;21098;-81
2021/03/17 01:45:50;;;;;;;44.18;31.70;;;;;;;1.63;82.66;96221.91;1759443;81;21212;-81
2021/03/17 01:48:16;;;;;;;42.90;29.98;;;;;;;1.56;83.20;96224.16;1766411;81;21090;-81
2021/03/17 01:50:50;;;;;;;47.53;29.55;;;;;;;1.51;83.16;96219.91;1764192;79;21356;-81
2021/03/17 01:53:34;;;;;;;46.77;31.50;;;;;;;1.50;83.05;96226.78;1762234;80;21102;-81
2021/03/17 01:56:01;;;;;;;42.20;29.37;;;;;;;1.49;83.46;96223.88;1751394;79;21090;-81
2021/03/17 01:58:27;;;;;;;40.92;29.18;;;;;;;1.50;83.30;96228.53;1762326;81;21282;-81
2021/03/17 02:00:53;;;;;;;39.42;27.20;;;;;;;1.56;83.30;96225.44;1764020;80;21098;-82
2021/03/17 02:03:19;;;;;;;39.67;28.52;;;;;;;1.56;83.07;96222.06;1760165;80;21093;-82
2021/03/17 02:05:46;;;;;;;34.05;24.25;;;;;;;1.54;83.24;96220.92;1761438;79;21098;-82
2021/03/17 02:08:19;;;;;;;41.20;27.58;;;;;;;1.53;83.48;96224.89;1767670;81;21113;-83
2021/03/17 02:10:46;;;;;;;42.00;28.50;;;;;;;1.49;83.43;96225.63;1767961;80;21213;-82
2021/03/17 02:13:43;;;;;;;39.50;26.77;;;;;;;1.49;83.46;96226.44;1759601;79;21087;-82
2021/03/17 02:16:15;;;;;;;37.90;27.07;;;;;;;1.48;83.35;96227.38;1755126;81;21094;-81
2021/03/17 02:19:14;;;;;;;29.60;20.37;;;;;;;1.53;83.28;96230.02;1749163;79;21309;-82
2021/03/17 02:22:29;;;;;;;37.40;26.50;;;;;;;1.54;83.21;96228.60;1740342;80;21070;-82
2021/03/17 02:25:24;;;;;;;42.93;28.92;;;;;;;1.54;83.30;96228.60;1759351;81;21243;-82
2021/03/17 02:28:10;;;;;;;38.53;27.45;;;;;;;1.55;83.38;96227.66;1761086;79;21082;-82
2021/03/17 02:31:22;;;;;;;37.13;24.23;;;;;;;1.56;83.48;96225.91;1756478;79;21094;-82
2021/03/17 02:34:01;;;;;;;35.15;25.37;;;;;;;1.56;83.37;96225.91;1758386;79;21107;-82
2021/03/17 02:36:37;;;;;;;36.00;25.60;;;;;;;1.54;83.21;96225.23;1757884;79;21325;-82
2021/03/17 02:39:23;;;;;;;39.40;27.87;;;;;;;1.52;83.16;96223.27;1761012;79;21217;-81
2021/03/17 02:42:07;;;;;;;35.48;26.00;;;;;;;1.50;83.26;96229.81;1773210;80;21077;-81
2021/03/17 02:44:33;;;;;;;40.45;28.27;;;;;;;1.50;83.40;96231.09;1773618;79;21291;-82
2021/03/17 02:47:00;;;;;;;38.65;26.57;;;;;;;1.48;83.40;96228.66;1763242;80;21263;-82
2021/03/17 02:49:29;;;;;;;39.58;26.42;;;;;;;1.47;83.46;96229.60;1770554;80;21097;-82
2021/03/17 02:51:59;;;;;;;36.25;25.57;;;;;;;1.52;83.38;96234.80;1772738;80;21058;-82
2021/03/17 02:54:28;;;;;;;35.83;24.52;;;;;;;1.54;83.33;96228.60;1759547;80;21101;-82
2021/03/17 02:57:19;;;;;;;34.50;24.75;;;;;;;1.55;83.27;96219.98;1767806;80;21216;-82
2021/03/17 02:59:49;;;;;;;35.15;25.70;;;;;;;1.56;83.18;96224.16;1734800;80;21129;-82
2021/03/17 03:02:15;;;;;;;39.13;27.60;;;;;;;1.58;83.17;96216.34;1771120;80;21248;-82
2021/03/17 03:04:41;;;;;;;37.90;25.40;;;;;;;1.63;83.32;96220.63;1770540;79;21232;-82
2021/03/17 03:07:07;;;;;;;40.05;27.60;;;;;;;1.64;83.14;96217.12;1762890;80;21097;-82
2021/03/17 03:09:34;;;;;;;36.65;25.32;;;;;;;1.66;83.03;96223.73;1779897;79;21071;-82
2021/03/17 03:12:00;;;;;;;37.08;26.73;;;;;;;1.66;83.06;96208.36;1763062;80;21104;-82
2021/03/17 03:14:27;;;;;;;36.85;26.37;;;;;;;1.72;82.97;96210.86;1763093;80;21195;-82
2021/03/17 03:16:56;;;;;;;37.05;27.52;;;;;;;1.74;82.86;96208.97;1763062;80;21102;-82
2021/03/17 03:19:32;;;;;;;42.80;27.50;;;;;;;1.75;82.88;96208.84;1762792;80;21331;-82
2021/03/17 03:21:58;;;;;;;41.88;28.90;;;;;;;1.74;82.92;96208.50;1780107;80;21093;-82
2021/03/17 03:24:24;;;;;;;40.35;27.37;;;;;;;1.74;82.97;96208.97;1785956;79;21098;-83
2021/03/17 03:26:55;;;;;;;41.28;26.60;;;;;;;1.71;82.89;96211.80;1764487;79;21073;-82
2021/03/17 03:29:23;;;;;;;39.25;28.52;;;;;;;1.67;82.98;96206.14;1762705;80;21129;-82
2021/03/17 03:31:49;;;;;;;41.55;28.73;;;;;;;1.66;83.04;96207.55;1782339;80;21109;-82
2021/03/17 03:34:16;;;;;;;37.83;27.27;;;;;;;1.68;83.04;96213.35;1771339;79;21090;-82
2021/03/17 03:36:42;;;;;;;43.68;27.80;;;;;;;1.72;83.08;96213.42;1771245;80;21121;-82
2021/03/17 03:39:09;;;;;;;43.42;30.50;;;;;;;1.70;83.06;96216.12;1764560;80;21212;-83
2021/03/17 03:41:35;;;;;;;40.33;27.55;;;;;;;1.68;83.00;96219.75;1771295;79;21106;-83
2021/03/17 03:44:00;;;;;;;41.70;28.25;;;;;;;1.68;82.99;96212.87;1761190;81;21317;-83
2021/03/17 03:46:26;;;;;;;44.88;29.75;;;;;;;1.70;82.94;96214.02;1752347;81;21239;-83
2021/03/17 03:48:53;;;;;;;45.12;30.32;;;;;;;1.73;82.97;96215.84;1753094;81;21459;-83
2021/03/17 03:51:21;;;;;;;41.05;27.90;;;;;;;1.76;82.92;96222.45;1749373;81;21329;-82
2021/03/17 03:53:58;;;;;;;49.38;30.80;;;;;;;1.78;82.98;96216.73;1752615;81;21094;-82
2021/03/17 03:57:09;;;;;;;49.58;30.35;;;;;;;1.75;83.20;96216.52;1809108;78;23105;-81
2021/03/17 03:59:39;;;;;;;44.03;28.70;;;;;;;1.63;83.60;96221.44;1758697;81;21406;-82
2021/03/17 04:02:05;;;;;;;45.88;30.62;;;;;;;1.53;83.54;96221.05;1736047;81;21380;-82
2021/03/17 04:04:35;;;;;;;46.42;32.25;;;;;;;1.48;83.62;96218.42;1766004;80;21118;-82
2021/03/17 04:07:02;;;;;;;44.18;29.23;;;;;;;1.51;83.72;96223.75;1753090;81;21324;-82
2021/03/17 04:09:48;;;;;;;49.27;31.95;;;;;;;1.51;83.73;96223.75;1725496;82;21121;-82
2021/03/17 04:12:15;;;;;;;42.80;29.05;;;;;;;1.56;83.80;96220.78;1732756;81;21243;-82
2021/03/17 04:14:44;;;;;;;52.50;32.28;;;;;;;1.55;83.87;96222.54;1747378;82;21127;-82
2021/03/17 04:17:23;;;;;;;34.18;23.83;;;;;;;1.52;83.96;96220.24;1729325;82;21824;-82
2021/03/17 04:19:52;;;;;;;31.50;20.80;;;;;;;1.52;84.70;96222.80;1742724;82;21264;-82
2021/03/17 04:22:18;;;;;;;46.30;31.02;;;;;;;1.46;84.18;96223.30;1727126;82;21090;-82
2021/03/17 04:24:44;;;;;;;43.15;29.95;;;;;;;1.41;84.28;96224.17;1698665;82;21173;-82
2021/03/17 04:27:11;;;;;;;32.00;19.87;;;;;;;1.42;84.23;96218.11;1716907;81;21384;-82
2021/03/17 04:29:38;;;;;;;47.20;29.98;;;;;;;1.39;84.36;96223.02;1709599;82;21276;-82
2021/03/17 04:32:05;;;;;;;47.05;31.77;;;;;;;1.34;84.48;96216.67;1724112;82;21130;-82
2021/03/17 04:34:31;;;;;;;46.73;29.52;;;;;;;1.32;84.46;96223.67;1747122;81;21186;-82
2021/03/17 04:36:57;;;;;;;44.35;30.43;;;;;;;1.33;84.44;96215.86;1742272;82;21132;-82
2021/03/17 04:39:24;;;;;;;48.20;31.37;;;;;;;1.34;84.58;96216.67;1746198;82;21171;-82
2021/03/17 04:41:50;;;;;;;50.50;33.95;;;;;;;1.36;84.53;96222.00;1745548;82;21431;-82
2021/03/17 04:44:16;;;;;;;42.73;28.92;;;;;;;1.39;84.59;96218.38;1742914;81;21140;-82
2021/03/17 04:46:42;;;;;;;53.13;33.25;;;;;;;1.36;84.50;96220.72;1734646;82;21104;-82
2021/03/17 04:49:09;;;;;;;45.30;29.70;;;;;;;1.37;84.68;96220.25;1742112;82;21137;-82
2021/03/17 04:51:35;;;;;;;52.23;33.83;;;;;;;1.38;85.31;96218.84;1721244;82;21538;-82
2021/03/17 04:54:01;;;;;;;50.08;31.35;;;;;;;1.36;84.76;96220.72;1747427;82;21154;-82
2021/03/17 04:56:28;;;;;;;42.03;27.50;;;;;;;1.43;84.66;96225.66;1740358;82;21256;-82
2021/03/17 04:58:54;;;;;;;36.28;23.92;;;;;;;1.44;84.62;96226.46;1729485;81;21114;-82
2021/03/17 05:01:22;;;;;;;40.25;26.27;;;;;;;1.41;84.89;96225.45;1719950;81;21126;-82
2021/03/17 05:03:48;;;;;;;51.73;33.42;;;;;;;1.36;84.77;96227.59;1718909;82;21991;-82
2021/03/17 05:06:14;;;;;;;51.05;32.25;;;;;;;1.31;84.92;96233.58;1725049;82;21087;-81
2021/03/17 05:08:43;;;;;;;55.35;33.30;;;;;;;1.32;85.06;96223.67;1710173;82;21367;-81
2021/03/17 05:11:09;;;;;;;27.07;16.77;;;;;;;1.34;84.96;96235.41;1723343;82;21146;-81
2021/03/17 05:13:36;;;;;;;50.28;30.27;;;;;;;1.37;85.88;96229.21;1739283;82;21095;-81
2021/03/17 05:16:04;;;;;;;50.15;31.77;;;;;;;1.29;84.95;96239.27;1715396;81;21150;-81
2021/03/17 05:18:30;;;;;;;47.73;29.45;;;;;;;1.27;85.05;96237.31;1723121;82;21114;-81
2021/03/17 05:20:56;;;;;;;54.65;33.23;;;;;;;1.29;85.23;96234.14;1738536;81;21130;-81
2021/03/17 05:23:22;;;;;;;52.20;33.08;;;;;;;1.27;85.25;96241.14;1728346;82;21402;-80
2021/03/17 05:25:48;;;;;;;52.35;32.28;;;;;;;1.25;85.19;96241.27;1679455;84;21139;-80
2021/03/17 05:28:16;;;;;;;48.80;31.20;;;;;;;1.31;85.15;96238.70;1693602;82;21167;-81
2021/03/17 05:30:47;;;;;;;51.00;32.13;;;;;;;1.35;85.00;96244.70;1751479;80;21130;-80
2021/03/17 05:33:13;;;;;;;42.50;29.18;;;;;;;1.37;84.97;96242.82;1757534;80;21409;-80
2021/03/17 05:35:40;;;;;;;38.98;24.10;;;;;;;1.33;85.26;96245.30;1723951;81;21142;-80
2021/03/17 05:38:06;;;;;;;51.35;32.30;;;;;;;1.26;84.99;96243.37;1757672;80;21098;-80
2021/03/17 05:40:32;;;;;;;48.05;31.00;;;;;;;1.25;85.09;96246.87;1728716;80;21110;-81
2021/03/17 05:43:04;;;;;;;45.73;28.27;;;;;;;1.30;85.06;96241.73;1726000;80;21108;-81
2021/03/17 05:45:32;;;;;;;41.18;27.95;;;;;;;1.30;85.07;96245.56;1744265;80;21142;-81
2021/03/17 05:47:57;;;;;;;51.33;32.13;;;;;;;1.30;84.89;96249.84;1760671;80;21110;-81
2021/03/17 05:50:23;;;;;;;53.13;32.93;;;;;;;1.26;84.92;96252.33;1759789;81;21106;-82
2021/03/17 05:52:49;;;;;;;53.08;30.92;;;;;;;1.26;85.07;96258.72;1760049;80;21086;-82
2021/03/17 05:55:16;;;;;;;48.30;31.75;;;;;;;1.29;85.08;96257.19;1760057;80;21145;-81
2021/03/17 05:57:43;;;;;;;45.17;28.57;;;;;;;1.34;84.96;96257.63;1759232;81;21877;-81
2021/03/17 06:00:17;;;;;;;47.55;31.07;;;;;;;1.35;85.33;96256.22;1759121;80;21089;-81
2021/03/17 06:02:43;;;;;;;49.08;31.50;;;;;;;1.31;85.03;96258.70;1753488;80;21141;-81
2021/03/17 06:05:11;;;;;;;51.05;33.10;;;;;;;1.32;85.09;96263.35;1760236;80;21387;-81
2021/03/17 06:08:10;;;;;;;57.65;36.98;;;;;;;1.30;85.18;96261.36;1760173;80;21946;-81
2021/03/17 06:10:36;;;;;;;38.48;23.62;;;;;;;1.27;85.10;96267.55;1753106;81;21121;-81
2021/03/17 06:13:10;;;;;;;44.85;28.95;;;;;;;1.29;85.43;96259.74;1701302;82;21136;-81
2021/03/17 06:15:38;;;;;;;55.30;33.98;;;;;;;1.29;85.13;96268.23;1705808;82;21118;-81
2021/03/17 06:18:22;;;;;;;53.70;34.25;;;;;;;1.28;85.02;96269.17;1728404;81;21261;-81
2021/03/17 06:20:48;;;;;;;27.48;16.67;;;;;;;1.27;85.39;96271.86;1735747;82;21091;-81
2021/03/17 06:23:14;;;;;;;52.08;32.67;;;;;;;1.24;85.48;96275.95;1734336;82;21126;-81
2021/03/17 06:25:44;;;;;;;54.35;33.10;;;;;;;1.20;85.56;96276.69;1733158;82;21103;-81
2021/03/17 06:28:11;;;;;;;51.10;31.65;;;;;;;1.21;85.44;96277.03;1737716;82;21118;-81
2021/03/17 06:30:37;;;;;;;54.08;32.60;;;;;;;1.31;85.46;96277.09;1722190;82;21121;-81
2021/03/17 06:33:04;;;;;;;53.33;34.20;;;;;;;1.39;85.31;96287.02;1731899;81;21431;-81
2021/03/17 06:35:30;;;;;;;44.63;29.42;;;;;;;1.25;85.19;96255.83;1728045;82;21143;-81
2021/03/17 06:37:59;;;;;;;52.40;31.90;;;;;;;1.40;85.35;96289.92;1738993;82;21118;-81
2021/03/17 06:40:29;;;;;;;55.78;34.83;;;;;;;1.37;85.38;96291.94;1737611;81;21271;-81
2021/03/17 06:43:10;;;;;;;53.63;34.08;;;;;;;1.36;85.26;96296.72;1734951;82;21126;-81
2021/03/17 06:45:47;;;;;;;58.48;35.92;;;;;;;1.37;85.32;96297.86;1731346;82;21087;-81
2021/03/17 06:48:28;;;;;;;55.73;35.35;;;;;;;1.40;85.31;96297.61;1737816;81;21106;-82
2021/03/17 06:51:15;;;;;;;50.05;32.15;;;;;;;1.45;85.42;96298.02;1735114;81;21122;-82
2021/03/17 06:53:53;;;;;;;57.73;34.78;;;;;;;1.48;85.20;96296.98;1728030;81;21119;-82
2021/03/17 06:56:27;;;;;;;55.48;35.92;;;;;;;1.42;85.27;96297.00;1691099;83;21266;-82
2021/03/17 06:59:07;;;;;;;52.70;35.08;;;;;;;1.46;85.25;96300.11;1702209;82;21935;-81
2021/03/17 07:01:45;;;;;;;45.33;28.90;;;;;;;1.48;85.16;96305.95;1710788;82;21151;-81
2021/03/17 07:04:20;;;;;;;48.10;29.90;;;;;;;1.52;85.06;96306.03;1753282;81;21118;-81
2021/03/17 07:06:48;;;;;;;55.78;35.75;;;;;;;1.55;85.22;96310.08;1748418;82;21107;-81
2021/03/17 07:09:25;;;;;;;58.30;35.45;;;;;;;1.54;85.08;96316.95;1746330;82;21153;-82
2021/03/17 07:12:06;;;;;;;57.67;36.90;;;;;;;1.56;85.09;96316.34;1748032;81;21131;-82
2021/03/17 07:14:40;;;;;;;49.83;33.30;;;;;;;1.58;84.91;96317.50;1745156;81;21152;-82
2021/03/17 07:17:29;;;;;;;53.68;33.73;;;;;;;1.59;84.79;96315.27;1740217;80;21102;-82
2021/03/17 07:19:55;;;;;;;55.00;35.85;;;;;;;1.56;84.70;96313.79;1755696;80;21103;-82
2021/03/17 07:22:22;;;;;;;48.17;32.95;;;;;;;1.54;84.78;96314.86;1751553;81;21381;-82
2021/03/17 07:24:53;;;;;;;53.23;33.20;;;;;;;1.55;84.83;96322.41;1708113;82;21468;-81
2021/03/17 07:27:22;;;;;;;37.90;25.23;;;;;;;1.55;84.79;96324.16;1739478;82;21149;-82
2021/03/17 07:30:06;;;;;;;55.90;35.60;;;;;;;1.57;84.78;96321.00;1746156;81;21129;-82
2021/03/17 07:32:59;;;;;;;33.00;20.05;;;;;;;1.63;84.79;96314.92;1743859;82;21122;-82
2021/03/17 07:35:31;;;;;;;32.17;22.93;;;;;;;1.70;84.57;96324.16;1750302;81;21261;-82
2021/03/17 07:38:12;;;;;;;50.98;33.60;;;;;;;1.74;84.40;96321.21;1745503;82;21444;-82
2021/03/17 07:40:44;;;;;;;51.20;33.75;;;;;;;1.78;84.15;96323.85;1728295;81;21383;-81
2021/03/17 07:43:11;;;;;;;50.10;31.48;;;;;;;1.82;83.98;96323.62;1780815;80;21340;-81
2021/03/17 07:45:37;;;;;;;49.40;30.72;;;;;;;1.90;83.92;96322.48;1781673;80;21078;-81
2021/03/17 07:48:06;;;;;;;47.40;31.17;;;;;;;1.98;83.99;96327.79;1777799;80;21090;-81
2021/03/17 07:50:33;;;;;;;45.80;30.77;;;;;;;2.02;83.69;96319.70;1780239;80;21137;-81
2021/03/17 07:53:02;;;;;;;45.20;30.02;;;;;;;2.13;83.68;96323.12;1778137;80;21502;-82
2021/03/17 07:55:28;;;;;;;51.53;33.08;;;;;;;2.17;83.54;96324.00;1781270;80;21133;-82
2021/03/17 07:57:56;;;;;;;50.65;35.33;;;;;;;2.20;83.52;96327.58;1767969;81;21565;-81
2021/03/17 08:00:24;;;;;;;51.95;32.67;;;;;;;2.24;83.57;96322.98;1765929;81;21237;-81
2021/03/17 08:02:52;;;;;;;52.67;34.00;;;;;;;2.31;83.42;96324.91;1774072;80;21369;-81
2021/03/17 08:05:19;;;;;;;52.33;33.67;;;;;;;2.36;83.09;96320.19;1758914;80;21071;-81
2021/03/17 08:07:45;;;;;;;49.77;32.05;;;;;;;2.40;82.82;96327.14;1774896;80;21381;-81
2021/03/17 08:10:12;;;;;;;52.73;33.18;;;;;;;2.45;82.97;96324.20;1771787;80;21106;-82
2021/03/17 08:12:38;;;;;;;56.63;34.45;;;;;;;2.47;82.60;96327.44;1750142;80;21107;-82
2021/03/17 08:15:05;;;;;;;59.03;37.40;;;;;;;2.40;82.49;96325.38;1720301;83;21155;-82
2021/03/17 08:17:34;;;;;;;62.27;37.98;;;;;;;2.44;82.75;96328.52;1725384;82;21349;-82
2021/03/17 08:20:22;;;;;;;52.45;33.60;;;;;;;2.48;82.79;96320.89;1726349;83;21134;-82
2021/03/17 08:22:51;;;;;;;53.70;33.45;;;;;;;2.46;81.94;96327.91;1724816;81;21118;-81
2021/03/17 08:25:46;;;;;;;51.45;34.60;;;;;;;2.48;82.05;96325.21;1743566;82;21117;-82
2021/03/17 08:28:23;;;;;;;53.05;35.10;;;;;;;2.56;82.00;96330.00;1780725;80;21312;-82
2021/03/17 08:30:53;;;;;;;51.90;33.85;;;;;;;2.71;82.38;96326.56;1778579;80;21110;-82
2021/03/17 08:33:39;;;;;;;52.43;33.40;;;;;;;2.81;82.19;96330.44;1786801;78;21340;-81
2021/03/17 08:36:12;;;;;;;54.60;35.08;;;;;;;2.90;81.95;96330.41;1784038;80;21253;-82
2021/03/17 08:38:54;;;;;;;52.58;32.23;;;;;;;3.00;81.71;96335.56;1767460;81;21479;-82
2021/03/17 08:41:42;;;;;;;52.62;34.30;;;;;;;3.10;81.71;96332.52;1762139;79;21513;-82
2021/03/17 08:44:19;;;;;;;50.75;33.67;;;;;;;3.16;81.29;96335.01;1785215;80;21398;-81
2021/03/17 08:46:46;;;;;;;53.00;35.45;;;;;;;3.13;80.90;96337.85;1786268;80;21125;-81
2021/03/17 08:49:16;;;;;;;51.70;35.43;;;;;;;3.19;81.11;96336.82;1788027;79;21114;-82
2021/03/17 08:51:50;;;;;;;56.05;36.35;;;;;;;3.29;81.13;96331.69;1782768;79;21103;-81
2021/03/17 08:54:43;;;;;;;57.90;34.50;;;;;;;3.23;80.87;96330.93;1785299;80;21355;-81
2021/03/17 08:57:15;;;;;;;47.98;31.82;;;;;;;3.27;81.10;96332.30;1507346;79;10000374;-82
2021/03/17 08:59:59;;;;;;;56.28;35.33;;;;;;;3.27;80.82;96327.98;1660406;85;21279;-81
2021/03/17 09:02:32;;;;;;;48.92;32.45;;;;;;;3.23;80.74;96333.02;1659836;85;21152;-82
2021/03/17 09:05:04;;;;;;;39.92;27.07;;;;;;;3.21;80.47;96332.36;1659809;85;21323;-82
2021/03/17 09:07:34;;;;;;;49.08;32.70;;;;;;;3.13;79.70;96334.00;1661358;85;21161;-82
2021/03/17 09:10:10;;;;;;;48.63;33.70;;;;;;;3.08;80.35;96334.86;1663597;85;21162;-82
2021/03/17 09:12:41;;;;;;;40.35;27.98;;;;;;;3.13;80.79;96336.09;1658450;85;21153;-81
2021/03/17 09:15:15;;;;;;;41.83;28.40;;;;;;;3.12;79.86;96345.22;1659787;85;21136;-82
2021/03/17 09:17:54;;;;;;;33.00;22.35;;;;;;;3.04;79.93;96336.91;1665748;85;21138;-82
2021/03/17 09:20:44;;;;;;;41.00;27.82;;;;;;;2.96;79.32;96342.73;1654843;85;21347;-82
2021/03/17 09:23:21;;;;;;;42.67;28.70;;;;;;;2.98;79.52;96337.45;1646434;85;21276;-82
2021/03/17 09:25:57;;;;;;;49.20;33.13;;;;;;;3.15;80.21;96343.66;1663026;85;21094;-82
2021/03/17 09:28:27;;;;;;;46.18;32.53;;;;;;;3.19;79.98;96345.00;1671506;85;21125;-81
2021/03/17 09:31:08;;;;;;;46.55;30.10;;;;;;;3.22;80.11;96343.44;1650382;85;21141;-81
2021/03/17 09:33:41;;;;;;;37.25;25.55;;;;;;;3.30;79.22;96344.86;1655580;85;21160;-81
2021/03/17 09:36:09;;;;;;;;;;;;;;;3.44;79.29;96346.20;1666194;85;21157;-82
2021/03/17 09:38:38;;;;;;;40.40;27.65;;;;;;;3.52;78.59;96344.53;1664020;85;20175;-82
2021/03/17 09:41:14;;;;;;;36.63;25.43;;;;;;;3.70;78.47;96341.24;1671803;85;21137;-82
2021/03/17 09:43:47;;;;;;;37.40;23.87;;;;;;;3.85;78.39;96338.08;1681882;85;21398;-82
2021/03/17 09:46:36;;;;;;;39.18;26.65;;;;;;;4.01;77.64;96344.38;1666330;85;21440;-82
2021/03/17 09:49:14;;;;;;;39.85;26.37;;;;;;;4.01;77.56;96345.66;1659400;85;21150;-82
2021/03/17 09:51:55;;;;;;;37.28;24.85;;;;;;;4.14;77.70;96339.73;1657718;85;21126;-82
2021/03/17 09:54:24;;;;;;;40.08;26.85;;;;;;;4.21;77.01;96347.19;1657871;85;21101;-83
2021/03/17 09:56:53;;;;;;;28.60;19.42;;;;;;;4.27;76.72;96341.50;1661868;85;21740;-82
2021/03/17 09:59:27;;;;;;;39.08;28.12;;;;;;;4.41;75.38;96342.78;1657558;85;21161;-82
2021/03/17 10:02:24;;;;;;;25.85;17.70;;;;;;;4.66;76.69;96342.06;1626427;87;21343;-83
2021/03/17 10:04:55;;;;;;;40.92;27.32;;;;;;;4.99;75.25;96338.02;1627156;87;21578;-82
2021/03/17 10:07:27;;;;;;;26.85;18.10;;;;;;;4.94;74.84;96344.58;1627439;87;21243;-81
2021/03/17 10:09:54;;;;;;;30.50;21.95;;;;;;;4.90;74.75;96341.50;1614232;88;21128;-82
2021/03/17 10:12:23;;;;;;;28.60;20.65;;;;;;;4.74;73.70;96338.30;1611396;88;21402;-82
2021/03/17 10:14:57;;;;;;;37.88;26.23;;;;;;;4.70;72.68;96337.42;1614085;88;21180;-82
2021/03/17 10:17:25;;;;;;;32.95;22.62;;;;;;;4.58;74.15;96334.75;1614780;88;21558;-82
2021/03/17 10:19:54;;;;;;;37.50;24.07;;;;;;;4.49;73.79;96334.66;1614531;88;21284;-82
2021/03/17 10:22:21;;;;;;;33.40;22.67;;;;;;;4.42;74.23;96336.20;1610851;88;21350;-81
2021/03/17 10:24:50;;;;;;;36.58;24.23;;;;;;;4.44;74.11;96342.48;1613590;88;21145;-81
2021/03/17 10:27:31;;;;;;;33.05;18.70;;;;;;;4.41;73.86;96344.06;1615178;88;21396;-81
2021/03/17 10:30:05;;;;;;;27.87;19.40;;;;;;;4.31;72.97;96341.53;1614989;88;21478;-82
2021/03/17 10:32:32;;;;;;;24.70;17.20;;;;;;;4.22;72.91;96341.91;1613671;88;21291;-81
2021/03/17 10:35:03;;;;;;;27.22;19.50;;;;;;;4.16;72.32;96336.05;1572248;88;21394;-81
2021/03/17 10:37:29;;;;;;;28.15;18.10;;;;;;;4.11;73.02;96340.83;1615560;88;22032;-82
2021/03/17 10:39:54;;;;;;;27.67;19.25;;;;;;;4.05;73.08;96343.95;1615471;88;21172;-82
2021/03/17 10:42:24;;;;;;;28.55;18.85;;;;;;;3.94;72.87;96339.01;1614548;88;21141;-82
2021/03/17 10:45:06;;;;;;;23.27;14.83;;;;;;;4.01;73.43;96342.62;1614307;88;21368;-82
2021/03/17 10:47:33;;;;;;;25.88;15.50;;;;;;;3.97;71.61;96341.30;1585570;88;21203;-82
2021/03/17 10:49:59;;;;;;;24.47;16.67;;;;;;;3.98;72.43;96339.05;1606787;88;21435;-82
2021/03/17 10:52:45;;;;;;;21.90;15.58;;;;;;;4.11;72.66;96329.26;1610941;88;21136;-82
2021/03/17 10:55:29;;;;;;;25.00;16.55;;;;;;;4.25;72.25;96325.88;1611424;88;21193;-82
2021/03/17 10:58:15;;;;;;;25.17;17.05;;;;;;;4.37;71.68;96330.66;1634616;86;21184;-82
2021/03/17 11:00:43;;;;;;;26.93;18.05;;;;;;;4.30;71.76;96330.91;1647829;86;21167;-83
2021/03/17 11:03:24;;;;;;;27.55;17.82;;;;;;;4.24;72.15;96342.27;1684711;83;21105;-81
2021/03/17 11:05:50;;;;;;;30.85;17.65;;;;;;;4.13;72.19;96332.49;1686061;83;21101;-82
2021/03/17 11:08:17;;;;;;;24.57;17.02;;;;;;;4.15;72.06;96334.44;1687241;83;21123;-82
2021/03/17 11:10:55;;;;;;;21.77;14.35;;;;;;;4.23;71.56;96328.59;1688675;83;21144;-82
2021/03/17 11:13:24;;;;;;;23.98;15.38;;;;;;;4.21;70.37;96325.33;1685842;83;21096;-83
2021/03/17 11:16:06;;;;;;;22.37;16.12;;;;;;;4.35;71.28;96327.42;1689380;83;21394;-82
2021/03/17 11:18:40;;;;;;;26.55;17.48;;;;;;;4.47;68.73;96319.03;1690327;83;21096;-82
2021/03/17 11:21:09;;;;;;;22.55;14.30;;;;;;;4.53;68.99;96316.67;1667808;84;21156;-82
2021/03/17 11:23:39;;;;;;;24.92;15.35;;;;;;;4.40;68.13;96316.24;1689772;83;21103;-82
2021/03/17 11:26:20;;;;;;;19.77;12.60;;;;;;;4.27;69.62;96318.83;1688502;83;21255;-83
2021/03/17 11:28:47;;;;;;;18.82;10.70;;;;;;;4.15;67.05;96322.05;1688067;83;21121;-82
2021/03/17 11:31:16;;;;;;;16.95;10.72;;;;;;;4.00;67.40;96324.29;1689092;83;21131;-82
2021/03/17 11:33:42;;;;;;;16.27;9.20;;;;;;;3.94;64.39;96322.30;1684394;83;21238;-82
2021/03/17 11:36:09;;;;;;;17.73;10.95;;;;;;;3.83;63.81;96318.61;1683690;83;21249;-83
2021/03/17 11:38:35;;;;;;;17.07;11.40;;;;;;;3.82;67.27;96325.52;1687017;83;21465;-82
2021/03/17 11:41:00;;;;;;;16.35;10.10;;;;;;;3.95;68.11;96318.77;1688197;83;21281;-82
2021/03/17 11:43:29;;;;;;;20.37;13.60;;;;;;;4.24;68.51;96313.97;1688817;83;21097;-82